TimeCDT,TemperatureF,Dew PointF,Humidity,Sea Level PressureIn,VisibilityMPH,Wind Direction,Wind SpeedMPH,Gust SpeedMPH,PrecipitationIn,Events,Conditions,WindDirDegrees,DateUTC
12:25 AM,82.4,62.6,51,29.91,10.0,North,16.1,-,N/A,,Mostly Cloudy,360,2013-08-07 05:25:00
12:53 AM,80.1,63.0,56,29.81,10.0,NNE,13.8,-,N/A,,Partly Cloudy,20,2013-08-07 05:53:00
1:53 AM,79.0,64.0,60,29.83,10.0,NE,9.2,-,N/A,,Clear,50,2013-08-07 06:53:00
2:53 AM,77.0,63.0,62,29.80,10.0,NNE,6.9,-,N/A,,Clear,20,2013-08-07 07:53:00
3:53 AM,77.0,64.0,64,29.81,10.0,North,13.8,24.2,N/A,,Partly Cloudy,360,2013-08-07 08:53:00
4:53 AM,77.0,63.0,62,29.78,10.0,NE,9.2,-,N/A,,Clear,50,2013-08-07 09:53:00
5:53 AM,75.9,64.0,67,29.80,10.0,North,5.8,-,N/A,,Clear,360,2013-08-07 10:53:00
6:53 AM,77.0,64.0,64,29.78,10.0,East,10.4,-,N/A,,Clear,80,2013-08-07 11:53:00
7:53 AM,78.1,64.0,62,29.78,6.0,SW,10.4,-,0.01,Rain,Light Rain,220,2013-08-07 12:53:00
8:53 AM,79.0,66.9,66,29.81,10.0,SW,3.5,-,0.00,,Clear,220,2013-08-07 13:53:00
9:53 AM,82.9,64.9,54,29.84,10.0,NNE,20.7,25.3,N/A,,Scattered Clouds,20,2013-08-07 14:53:00
10:53 AM,86.0,63.0,46,29.84,10.0,NNE,18.4,-,N/A,,Clear,30,2013-08-07 15:53:00
11:53 AM,86.0,62.1,44,29.86,10.0,NE,17.3,-,N/A,,Clear,50,2013-08-07 16:53:00
12:53 PM,90.0,62.1,39,29.86,10.0,NE,10.4,-,N/A,,Clear,50,2013-08-07 17:53:00
1:53 PM,93.9,62.1,35,29.84,10.0,ENE,11.5,-,N/A,,Clear,70,2013-08-07 18:53:00
2:53 PM,96.1,61.0,31,29.84,10.0,NE,10.4,-,N/A,,Clear,40,2013-08-07 19:53:00
3:53 PM,96.1,60.1,30,29.82,10.0,NE,6.9,18.4,N/A,,Clear,50,2013-08-07 20:53:00
4:53 PM,96.1,61.0,31,29.80,10.0,East,9.2,17.3,N/A,,Clear,80,2013-08-07 21:53:00
5:53 PM,93.0,64.0,38,29.79,10.0,East,10.4,17.3,N/A,,Clear,90,2013-08-07 22:53:00
6:53 PM,93.9,66.0,40,29.76,10.0,East,12.7,-,N/A,,Clear,80,2013-08-07 23:53:00
7:53 PM,91.0,66.9,45,29.77,10.0,East,15.0,-,N/A,,Clear,80,2013-08-08 00:53:00
8:53 PM,87.1,68.0,53,29.78,10.0,East,11.5,-,N/A,,Clear,90,2013-08-08 01:53:00
9:53 PM,84.9,70.0,61,29.81,10.0,East,10.4,-,N/A,,Clear,90,2013-08-08 02:53:00
10:53 PM,84.0,70.0,63,29.80,10.0,East,12.7,-,N/A,,Partly Cloudy,80,2013-08-08 03:53:00
11:48 PM,82.4,71.6,70,29.87,10.0,ENE,9.2,-,N/A,Thunderstorm,Scattered Clouds,70,2013-08-08 04:48:00
11:53 PM,82.9,71.1,67,29.78,10.0,ENE,11.5,-,N/A,Thunderstorm,Mostly Cloudy,70,2013-08-08 04:53:00